createdAt,value
2018-07-26T00:03:13.082Z,2.6
2018-07-26T00:13:26.905Z,2.6
2018-07-26T00:23:48.001Z,2.9
2018-07-26T00:33:59.511Z,2.7
2018-07-26T00:44:10.764Z,2.8
2018-07-26T00:54:24.997Z,2.9
2018-07-26T01:04:40.806Z,2.8
2018-07-26T01:15:05.253Z,3
2018-07-26T01:25:19.464Z,3.2
2018-07-26T01:35:47.446Z,2.9
2018-07-26T01:46:08.702Z,3.3
2018-07-26T01:56:14.897Z,2.5
2018-07-26T02:06:36.510Z,3.1
2018-07-26T02:16:57.447Z,2.5
2018-07-26T02:27:07.695Z,3.2
2018-07-26T02:37:25.490Z,3.3
2018-07-26T02:47:41.513Z,2.9
2018-07-26T02:57:58.068Z,3.4
2018-07-26T03:08:02.979Z,3.1
2018-07-26T03:18:22.038Z,3.6
2018-07-26T03:28:40.751Z,3.4
2018-07-26T03:39:12.956Z,3.5
2018-07-26T03:49:41.666Z,3.1
2018-07-26T04:00:06.666Z,3.3
2018-07-26T04:10:26.927Z,3
2018-07-26T04:20:51.278Z,3.5
2018-07-26T04:31:09.307Z,3.5
2018-07-26T04:41:32.967Z,3.3
2018-07-26T04:52:04.888Z,3
2018-07-26T05:02:30.167Z,2.8
2018-07-26T05:12:55.766Z,3.6
2018-07-26T05:23:18.361Z,3.2
2018-07-26T05:33:40.815Z,2.9
2018-07-26T05:44:29.346Z,2.9
2018-07-26T05:54:42.115Z,2.7
2018-07-26T06:04:53.935Z,3
2018-07-26T06:15:21.549Z,3.9
2018-07-26T06:25:41.191Z,3.2
2018-07-26T06:35:58.787Z,3.1
2018-07-26T06:46:35.490Z,3
2018-07-26T06:57:06.517Z,2.5
2018-07-26T07:07:22.336Z,2.3
2018-07-26T07:17:26.699Z,2.5
2018-07-26T07:27:37.877Z,2.6
2018-07-26T07:37:45.612Z,1.9
2018-07-26T07:48:00.069Z,2.7
2018-07-26T07:58:10.595Z,1.9
2018-07-26T08:08:41.536Z,2.4
2018-07-26T08:18:51.194Z,2
2018-07-26T08:29:24.436Z,2
2018-07-26T08:39:35.360Z,2.2
2018-07-26T08:49:42.072Z,2.6
2018-07-26T08:59:53.380Z,2.2
2018-07-26T09:10:08.041Z,2.5
2018-07-26T09:20:21.457Z,2.5
2018-07-26T09:30:29.489Z,3.1
2018-07-26T09:40:55.922Z,3
2018-07-26T09:51:02.082Z,2.6
2018-07-26T10:01:12.866Z,2.6
2018-07-26T10:11:35.816Z,2.7
2018-07-26T10:21:50.239Z,2
2018-07-26T10:31:57.545Z,2.4
2018-07-26T10:42:12.404Z,1.6
2018-07-26T10:52:25.504Z,2.3
2018-07-26T11:02:25.047Z,3.1
2018-07-26T11:12:25.090Z,2.5
2018-07-26T11:22:28.341Z,2.3
2018-07-26T11:32:31.296Z,2.4
2018-07-26T11:42:32.049Z,2.3
2018-07-26T11:52:36.319Z,2.3
2018-07-26T12:02:37.155Z,2.4
2018-07-26T12:12:50.793Z,2.4
2018-07-26T12:23:07.011Z,2.9
2018-07-26T12:33:25.703Z,2.3
2018-07-26T12:43:42.775Z,2.7
2018-07-26T12:54:23.955Z,3
2018-07-26T13:04:31.276Z,3.2
2018-07-26T13:15:02.640Z,3
2018-07-26T13:25:18.129Z,3.2
2018-07-26T13:35:34.779Z,2.5
2018-07-26T13:45:47.434Z,2.2
2018-07-26T13:55:59.801Z,2.3
2018-07-26T14:06:10.877Z,2.6
2018-07-26T14:16:47.295Z,2.5
2018-07-26T14:26:57.511Z,2.7
2018-07-26T14:37:13.519Z,3.1
2018-07-26T14:47:41.151Z,2.6
2018-07-26T14:58:24.190Z,2.7
2018-07-26T15:08:41.454Z,3.4
2018-07-26T15:18:52.784Z,2.8
2018-07-26T15:29:16.319Z,2.8
2018-07-26T15:39:37.959Z,2.2
2018-07-26T15:49:56.104Z,2.5
2018-07-26T16:00:11.796Z,3.5
2018-07-26T16:10:34.869Z,2.9
2018-07-26T16:20:41.309Z,2.8
2018-07-26T16:31:01.481Z,3.1
2018-07-26T16:41:21.217Z,2.9
2018-07-26T16:51:33.387Z,3.5
2018-07-26T17:01:35.917Z,2.8
2018-07-26T17:11:35.582Z,3.1
2018-07-26T17:21:35.868Z,2.6
2018-07-26T17:31:36.085Z,3
2018-07-26T17:41:35.959Z,2.8
2018-07-26T17:51:47.326Z,3.2
2018-07-26T18:01:46.972Z,2.4
2018-07-26T18:11:46.610Z,3.2
2018-07-26T18:21:46.376Z,3.2
2018-07-26T18:31:47.835Z,3.3
2018-07-26T18:41:47.793Z,3.7
2018-07-26T18:51:47.970Z,4
2018-07-26T19:01:47.616Z,4
2018-07-26T19:11:47.219Z,3.6
2018-07-26T19:21:54.158Z,3.6
2018-07-26T19:32:06.060Z,3.3
2018-07-26T19:42:15.474Z,3.5
2018-07-26T19:52:15.221Z,3.5
2018-07-26T20:02:15.430Z,4.4
2018-07-26T20:12:15.269Z,3.6
2018-07-26T20:22:15.931Z,3.7
2018-07-26T20:32:20.460Z,4.6
2018-07-26T20:42:20.764Z,3.8
2018-07-26T20:52:21.354Z,4.1
2018-07-26T21:02:22.306Z,3.8
2018-07-26T21:12:22.166Z,4
2018-07-26T21:22:21.712Z,3.5
2018-07-26T21:32:22.190Z,3.6
2018-07-26T21:42:28.636Z,3.3
2018-07-26T21:52:28.547Z,3.6
2018-07-26T22:02:28.883Z,4.1
2018-07-26T22:12:28.845Z,4.2
2018-07-26T22:22:31.776Z,4.2
2018-07-26T22:32:36.734Z,3.7
2018-07-26T22:42:36.437Z,4.1
2018-07-26T22:52:37.974Z,4.2
2018-07-26T23:02:40.291Z,4.5
2018-07-26T23:12:39.843Z,4.5
2018-07-26T23:22:39.323Z,4
2018-07-26T23:32:39.266Z,4
2018-07-26T23:42:39.003Z,4.1
2018-07-26T23:52:38.823Z,4.7
